Time;durP1;ratioP1;P1;durP2;ratioP2;P2;SDS_P1;SDS_P2;PMS_P1;PMS_P2;Temp;Humidity;BMP_temperature;BMP_pressure;BME280_temperature;BME280_humidity;BME280_pressure;Samples;Min_cycle;Max_cycle;Signal;HPM_P1;HPM_P2
2023/01/29 00:01:19;;;;;;;5.47;4.57;;;7.30;52.30;;;;;;4915419;29;20220;-73
2023/01/29 00:03:46;;;;;;;5.18;4.10;;;7.30;52.30;;;;;;4947202;29;20225;-72
2023/01/29 00:06:13;;;;;;;4.90;4.40;;;7.30;52.30;;;;;;4931357;29;20583;-72
2023/01/29 00:08:40;;;;;;;5.13;4.28;;;7.30;52.30;;;;;;4914484;29;21127;-72
2023/01/29 00:11:09;;;;;;;4.07;3.63;;;7.30;52.30;;;;;;4914967;29;20281;-72
2023/01/29 00:13:36;;;;;;;5.80;4.65;;;7.20;52.30;;;;;;4919271;29;20209;-72
2023/01/29 00:16:04;;;;;;;4.82;4.28;;;7.20;52.50;;;;;;4926780;29;20321;-72
2023/01/29 00:18:31;;;;;;;5.70;4.65;;;7.20;52.40;;;;;;4926521;29;20309;-72
2023/01/29 00:20:58;;;;;;;4.82;4.43;;;7.20;52.30;;;;;;4925562;29;20207;-72
2023/01/29 00:23:25;;;;;;;5.20;4.40;;;7.20;52.60;;;;;;4914121;29;20401;-72
2023/01/29 00:25:52;;;;;;;5.95;4.93;;;7.20;52.80;;;;;;4925923;29;20225;-72
2023/01/29 00:28:20;;;;;;;5.65;4.70;;;7.20;52.80;;;;;;4927656;29;20229;-72
2023/01/29 00:30:47;;;;;;;6.35;4.50;;;7.20;52.90;;;;;;4922035;29;20438;-72
2023/01/29 00:33:14;;;;;;;5.13;4.60;;;7.20;52.70;;;;;;4930400;29;20302;-72
2023/01/29 00:35:42;;;;;;;6.28;4.90;;;7.20;52.70;;;;;;4919850;29;20301;-72
2023/01/29 00:38:09;;;;;;;7.63;5.25;;;7.20;52.80;;;;;;4924518;29;20210;-73
2023/01/29 00:46:06;;;;;;;5.90;5.25;;;7.10;52.80;;;;;;4922099;29;20217;-72
2023/01/29 00:48:33;;;;;;;6.10;5.30;;;7.10;52.90;;;;;;4919713;29;20213;-70
2023/01/29 00:51:00;;;;;;;5.35;4.85;;;7.10;53.00;;;;;;4933714;29;20293;-71
2023/01/29 00:53:27;;;;;;;6.70;5.70;;;7.10;52.90;;;;;;4934325;29;20210;-72
2023/01/29 00:55:54;;;;;;;5.90;5.30;;;7.10;53.00;;;;;;4924083;29;20203;-71
2023/01/29 00:58:26;;;;;;;5.00;4.45;;;7.10;53.50;;;;;;4934576;29;20249;-71
2023/01/29 01:00:54;;;;;;;5.82;4.70;;;7.10;52.90;;;;;;4916397;29;20225;-71
2023/01/29 01:03:20;;;;;;;5.70;4.85;;;7.10;52.90;;;;;;4928059;29;20221;-72
2023/01/29 01:05:47;;;;;;;5.63;4.40;;;7.10;53.10;;;;;;4925294;29;20226;-72
2023/01/29 01:11:04;;;;;;;6.53;4.93;;;7.00;53.30;;;;;;4934932;29;20288;-70
2023/01/29 01:13:33;;;;;;;4.82;4.25;;;7.00;53.50;;;;;;4917209;29;20212;-71
2023/01/29 01:16:00;;;;;;;5.07;4.53;;;7.00;53.60;;;;;;4921392;29;20222;-72
2023/01/29 01:18:29;;;;;;;5.63;4.47;;;7.00;53.80;;;;;;4915705;29;20198;-71
2023/01/29 01:20:57;;;;;;;6.88;5.60;;;7.00;53.70;;;;;;4915682;29;20211;-72
2023/01/29 01:23:24;;;;;;;7.03;5.22;;;7.00;53.30;;;;;;4932961;29;20209;-71
2023/01/29 01:25:51;;;;;;;5.55;4.55;;;7.00;53.20;;;;;;4926786;29;20236;-72
2023/01/29 01:28:18;;;;;;;6.43;5.45;;;7.00;53.40;;;;;;4932572;29;20213;-71
2023/01/29 01:30:46;;;;;;;5.95;5.40;;;7.00;53.20;;;;;;4919578;29;20213;-72
2023/01/29 01:33:13;;;;;;;8.98;5.35;;;7.00;53.40;;;;;;4936428;29;20206;-70
2023/01/29 01:35:39;;;;;;;6.85;5.32;;;6.90;53.10;;;;;;4929422;29;20206;-70
2023/01/29 01:38:06;;;;;;;5.63;4.90;;;6.90;53.40;;;;;;4925592;29;20216;-72
2023/01/29 01:40:33;;;;;;;8.07;5.70;;;6.90;53.30;;;;;;4915910;29;20207;-71
2023/01/29 01:43:01;;;;;;;5.30;4.78;;;6.90;53.10;;;;;;4924018;29;20316;-72
2023/01/29 01:45:30;;;;;;;5.68;5.13;;;7.00;53.10;;;;;;4931909;29;20584;-72
2023/01/29 01:48:02;;;;;;;7.07;4.90;;;7.00;52.90;;;;;;4931966;29;20685;-71
2023/01/29 01:50:35;;;;;;;5.60;5.10;;;6.90;52.90;;;;;;4928708;29;20587;-71
2023/01/29 01:53:07;;;;;;;5.63;5.05;;;7.00;52.70;;;;;;4932967;29;20212;-70
2023/01/29 01:55:37;;;;;;;5.53;5.03;;;7.00;52.60;;;;;;4922241;29;20213;-71
2023/01/29 01:58:09;;;;;;;6.15;5.18;;;6.90;52.70;;;;;;4923236;29;20213;-71
2023/01/29 02:00:36;;;;;;;6.95;5.00;;;6.90;52.90;;;;;;4924954;29;20205;-72
2023/01/29 02:11:29;;;;;;;5.65;5.15;;;6.90;53.00;;;;;;4936682;29;20292;-72
2023/01/29 02:13:56;;;;;;;5.13;4.63;;;6.90;53.10;;;;;;4923696;29;20202;-71
2023/01/29 02:16:23;;;;;;;6.28;4.97;;;6.90;53.00;;;;;;4917937;29;20221;-71
2023/01/29 02:18:52;;;;;;;5.80;5.20;;;6.90;53.10;;;;;;4925612;29;20598;-71
2023/01/29 02:21:51;;;;;;;5.50;4.95;;;6.80;53.10;;;;;;4936012;29;20263;-72
2023/01/29 02:24:38;;;;;;;5.60;5.10;;;6.80;52.90;;;;;;4922532;29;20344;-71
2023/01/29 02:27:09;;;;;;;5.43;4.85;;;6.80;52.60;;;;;;4918658;29;20706;-71
2023/01/29 02:29:47;;;;;;;5.57;4.80;;;6.80;52.30;;;;;;4930925;29;20202;-72
2023/01/29 02:32:25;;;;;;;5.25;4.75;;;6.80;52.50;;;;;;4929381;29;20206;-71
2023/01/29 02:37:56;;;;;;;6.03;5.03;;;6.80;52.60;;;;;;4924552;29;20197;-72
2023/01/29 02:40:30;;;;;;;6.68;5.63;;;6.80;52.80;;;;;;4922087;29;20313;-71
2023/01/29 02:43:07;;;;;;;6.03;5.38;;;6.80;52.90;;;;;;4929075;29;20697;-71
2023/01/29 02:45:45;;;;;;;5.40;4.90;;;6.80;52.90;;;;;;4928385;29;20225;-71
2023/01/29 02:48:17;;;;;;;5.70;4.47;;;6.80;52.90;;;;;;4934884;29;20233;-70
2023/01/29 02:50:49;;;;;;;5.75;4.93;;;6.80;53.00;;;;;;4926633;29;20219;-71
2023/01/29 02:53:20;;;;;;;5.63;4.82;;;6.80;53.10;;;;;;4885265;29;20645;-71
2023/01/29 02:55:53;;;;;;;5.65;5.07;;;6.80;53.10;;;;;;4935807;29;20646;-71
2023/01/29 02:58:29;;;;;;;4.88;4.38;;;6.80;52.70;;;;;;4935497;29;20390;-71
2023/01/29 03:01:04;;;;;;;5.60;5.05;;;6.80;52.70;;;;;;4935537;29;20221;-70
2023/01/29 03:03:34;;;;;;;5.50;4.93;;;6.80;52.80;;;;;;4927480;29;20210;-72
2023/01/29 03:06:06;;;;;;;5.70;5.13;;;6.80;52.70;;;;;;4939717;29;20237;-71
2023/01/29 03:08:41;;;;;;;5.40;4.90;;;6.80;52.60;;;;;;4949371;29;20642;-72
2023/01/29 03:11:12;;;;;;;5.45;4.80;;;6.80;52.70;;;;;;4931902;29;20217;-71
2023/01/29 03:13:43;;;;;;;6.00;4.72;;;6.80;52.70;;;;;;4910345;29;20822;-72
2023/01/29 03:16:17;;;;;;;6.00;5.40;;;6.80;52.60;;;;;;4941279;29;20201;-71
2023/01/29 03:18:49;;;;;;;5.15;4.65;;;6.80;52.70;;;;;;4926746;29;20283;-72
2023/01/29 03:32:28;;;;;;;6.47;5.15;;;6.80;52.50;;;;;;4931851;29;20697;-71
2023/01/29 03:35:02;;;;;;;5.75;4.97;;;6.80;52.60;;;;;;4933996;29;20435;-71
2023/01/29 03:37:34;;;;;;;8.43;5.18;;;6.80;52.40;;;;;;4925878;29;20237;-70
2023/01/29 03:40:02;;;;;;;7.47;5.45;;;6.80;52.50;;;;;;4925504;29;20209;-71
2023/01/29 03:42:39;;;;;;;6.50;4.70;;;6.70;52.70;;;;;;4915503;29;20726;-71
2023/01/29 03:45:14;;;;;;;6.32;5.38;;;6.70;52.80;;;;;;4921058;29;20240;-71
2023/01/29 03:47:49;;;;;;;6.50;4.80;;;6.70;53.10;;;;;;4928030;29;20214;-71
2023/01/29 03:50:29;;;;;;;5.43;4.93;;;6.70;53.10;;;;;;4914255;29;20667;-71
2023/01/29 03:53:02;;;;;;;5.22;4.68;;;6.70;53.20;;;;;;4923109;29;20239;-71
2023/01/29 03:55:36;;;;;;;6.30;4.90;;;6.70;53.30;;;;;;4915506;29;20199;-71
2023/01/29 03:58:11;;;;;;;6.88;4.90;;;6.80;53.40;;;;;;4928973;29;20569;-71
2023/01/29 04:00:41;;;;;;;5.78;5.18;;;6.70;53.40;;;;;;4923406;29;20244;-71
2023/01/29 04:03:16;;;;;;;5.97;5.15;;;6.70;53.50;;;;;;4926714;29;20213;-71
2023/01/29 04:05:47;;;;;;;5.32;4.80;;;6.70;53.90;;;;;;4930809;29;20224;-71
2023/01/29 04:08:19;;;;;;;5.72;4.63;;;6.70;53.90;;;;;;4931017;29;20230;-72
2023/01/29 04:10:49;;;;;;;5.80;5.18;;;6.70;53.80;;;;;;4917822;29;20217;-69
2023/01/29 04:13:17;;;;;;;5.68;5.07;;;6.70;53.50;;;;;;4923880;29;20233;-70
2023/01/29 04:15:48;;;;;;;5.45;4.95;;;6.60;53.40;;;;;;4941181;29;20229;-72
2023/01/29 04:18:17;;;;;;;5.70;5.10;;;6.60;53.50;;;;;;4941284;29;20572;-71
2023/01/29 04:20:44;;;;;;;5.90;5.25;;;6.60;53.60;;;;;;4931931;29;20210;-71
2023/01/29 04:23:21;;;;;;;6.38;5.65;;;6.60;53.60;;;;;;4924465;29;20686;-71
2023/01/29 04:25:56;;;;;;;6.80;5.32;;;6.60;53.60;;;;;;4913359;29;20285;-71
2023/01/29 04:28:28;;;;;;;5.60;4.95;;;6.60;53.60;;;;;;4879885;29;20647;-71
2023/01/29 04:31:00;;;;;;;5.00;4.50;;;6.60;53.90;;;;;;4918658;29;20241;-71
2023/01/29 04:33:35;;;;;;;5.65;5.00;;;6.60;54.10;;;;;;4929586;29;20218;-71
2023/01/29 04:36:17;;;;;;;4.95;4.45;;;6.60;53.90;;;;;;4917653;29;20206;-71
2023/01/29 04:38:54;;;;;;;5.80;5.30;;;6.60;53.90;;;;;;4914702;29;20230;-72
2023/01/29 04:41:24;;;;;;;5.82;5.10;;;6.60;53.70;;;;;;4931876;29;20221;-72
2023/01/29 04:44:00;;;;;;;5.80;4.65;;;6.60;53.90;;;;;;4930125;29;20248;-70
2023/01/29 04:46:33;;;;;;;5.93;5.32;;;6.60;53.90;;;;;;4932303;29;20702;-72
2023/01/29 04:49:12;;;;;;;6.47;4.97;;;6.60;53.90;;;;;;4916676;29;20494;-71
2023/01/29 04:51:47;;;;;;;6.25;5.07;;;6.60;53.90;;;;;;4918089;29;20663;-71
2023/01/29 04:54:19;;;;;;;6.60;5.35;;;6.60;53.90;;;;;;4938406;29;20220;-71
2023/01/29 04:56:52;;;;;;;7.13;5.35;;;6.60;54.00;;;;;;4932516;29;20209;-70
2023/01/29 04:59:25;;;;;;;6.88;5.63;;;6.60;54.00;;;;;;4926136;29;20202;-70
2023/01/29 05:01:52;;;;;;;6.32;5.28;;;6.60;54.00;;;;;;4932203;29;20220;-71
2023/01/29 05:04:22;;;;;;;5.82;5.22;;;6.60;53.90;;;;;;4943473;29;20256;-70
2023/01/29 05:06:50;;;;;;;5.50;4.57;;;6.60;53.90;;;;;;4951620;29;20232;-72
2023/01/29 05:09:18;;;;;;;5.32;4.82;;;6.60;54.00;;;;;;4943404;29;20213;-71
2023/01/29 05:11:47;;;;;;;5.53;5.00;;;6.60;54.70;;;;;;4932620;29;20198;-71
2023/01/29 05:14:17;;;;;;;4.88;4.38;;;6.60;54.20;;;;;;4930990;29;20233;-72
2023/01/29 05:16:47;;;;;;;5.93;5.03;;;6.60;54.10;;;;;;4927283;29;20214;-70
2023/01/29 05:19:16;;;;;;;5.80;4.50;;;6.60;53.80;;;;;;4925914;29;20202;-70
2023/01/29 05:21:46;;;;;;;6.07;5.20;;;6.70;53.60;;;;;;4928479;29;20237;-71
2023/01/29 05:24:17;;;;;;;4.93;4.43;;;6.60;54.10;;;;;;4932508;29;20213;-71
2023/01/29 05:29:31;;;;;;;6.25;4.93;;;6.60;53.40;;;;;;4925627;29;20308;-71
2023/01/29 05:31:58;;;;;;;5.22;4.47;;;6.60;53.40;;;;;;4926435;29;20301;-71
2023/01/29 05:34:24;;;;;;;6.20;4.68;;;6.60;53.50;;;;;;4929694;29;20738;-71
2023/01/29 05:36:52;;;;;;;5.53;4.50;;;6.50;53.40;;;;;;4927130;29;20707;-70
2023/01/29 05:39:19;;;;;;;5.43;4.93;;;6.50;53.70;;;;;;4920749;29;20198;-71
2023/01/29 05:41:46;;;;;;;4.50;4.10;;;6.50;53.80;;;;;;4930752;29;20202;-71
2023/01/29 05:44:13;;;;;;;5.25;4.50;;;6.50;53.50;;;;;;4916073;29;20210;-72
2023/01/29 05:46:40;;;;;;;5.55;4.60;;;6.50;53.60;;;;;;4912592;29;20235;-71
2023/01/29 05:49:07;;;;;;;6.68;4.18;;;6.50;53.80;;;;;;4914036;29;20217;-71
2023/01/29 05:51:34;;;;;;;7.13;4.97;;;6.50;53.90;;;;;;4914139;29;20206;-72
2023/01/29 05:54:02;;;;;;;5.40;4.25;;;6.50;53.80;;;;;;4914012;29;20341;-72
2023/01/29 05:56:28;;;;;;;5.20;4.70;;;6.50;53.70;;;;;;4913745;29;20567;-71
2023/01/29 05:58:56;;;;;;;5.10;4.60;;;6.50;53.60;;;;;;4912512;29;20229;-71
2023/01/29 06:01:25;;;;;;;5.10;4.60;;;6.50;53.70;;;;;;4911286;29;20284;-70
2023/01/29 06:03:52;;;;;;;4.63;4.22;;;6.40;53.60;;;;;;4927931;29;20201;-71
2023/01/29 06:06:18;;;;;;;4.90;4.30;;;6.50;53.60;;;;;;4931379;29;20226;-72
2023/01/29 06:08:46;;;;;;;5.70;4.65;;;6.50;53.70;;;;;;4930294;29;20206;-72
2023/01/29 06:11:17;;;;;;;6.05;4.90;;;6.50;53.60;;;;;;4932274;29;20496;-72
2023/01/29 06:13:44;;;;;;;5.10;4.45;;;6.50;53.60;;;;;;4926960;29;20238;-70
2023/01/29 06:16:12;;;;;;;5.50;4.80;;;6.50;53.60;;;;;;4929923;29;20209;-71
2023/01/29 06:18:40;;;;;;;7.57;4.97;;;6.50;53.50;;;;;;4937006;29;20235;-70
2023/01/29 06:21:10;;;;;;;5.57;5.07;;;6.50;53.60;;;;;;4940996;29;20230;-72
2023/01/29 06:23:37;;;;;;;4.78;4.30;;;6.50;53.80;;;;;;4933405;29;20800;-70
2023/01/29 06:26:06;;;;;;;6.55;5.05;;;6.50;53.80;;;;;;4930520;29;20224;-71
2023/01/29 06:28:34;;;;;;;7.10;5.22;;;6.50;53.70;;;;;;4934883;29;20230;-71
2023/01/29 06:31:03;;;;;;;5.35;4.78;;;6.50;53.60;;;;;;4929774;29;20225;-71
2023/01/29 06:33:30;;;;;;;6.18;5.00;;;6.50;53.60;;;;;;4924216;29;20213;-71
2023/01/29 06:35:58;;;;;;;6.00;5.28;;;6.50;53.70;;;;;;4916920;29;20234;-72
2023/01/29 06:38:25;;;;;;;8.55;5.65;;;6.40;53.70;;;;;;4899321;29;20214;-71
2023/01/29 06:40:53;;;;;;;5.47;4.90;;;6.40;53.60;;;;;;4926887;29;20564;-71
2023/01/29 06:43:20;;;;;;;7.15;5.60;;;6.40;53.70;;;;;;4934545;29;20615;-71
2023/01/29 06:45:49;;;;;;;5.55;4.68;;;6.40;53.60;;;;;;4933066;29;20233;-70
2023/01/29 06:48:16;;;;;;;6.28;5.40;;;6.40;53.70;;;;;;4932400;29;20218;-72
2023/01/29 06:50:43;;;;;;;5.93;5.00;;;6.40;53.70;;;;;;4935332;29;20229;-71
2023/01/29 06:53:10;;;;;;;6.82;5.30;;;6.40;53.80;;;;;;4930879;29;20202;-71
2023/01/29 06:55:37;;;;;;;5.72;5.13;;;6.40;53.90;;;;;;4933886;29;20221;-71
2023/01/29 06:58:08;;;;;;;6.05;5.30;;;6.40;54.00;;;;;;4935113;29;20241;-72
2023/01/29 07:00:35;;;;;;;5.85;5.20;;;6.40;54.10;;;;;;4935132;29;20210;-72
2023/01/29 07:03:04;;;;;;;6.28;5.68;;;6.40;54.00;;;;;;4931730;29;20237;-70
2023/01/29 07:05:31;;;;;;;6.28;5.38;;;6.40;53.90;;;;;;4915731;29;20231;-70
2023/01/29 07:07:58;;;;;;;5.10;4.60;;;6.40;54.10;;;;;;4930363;29;20232;-71
2023/01/29 07:10:25;;;;;;;5.88;5.28;;;6.40;54.20;;;;;;4930242;29;20206;-70
2023/01/29 07:12:52;;;;;;;7.75;5.07;;;6.40;53.80;;;;;;4928192;29;20227;-71
2023/01/29 07:15:20;;;;;;;6.10;4.97;;;6.40;54.30;;;;;;4920300;29;20581;-71
2023/01/29 07:17:57;;;;;;;5.53;4.75;;;6.40;53.70;;;;;;4938622;29;20199;-71
2023/01/29 07:20:26;;;;;;;5.45;4.82;;;6.40;53.90;;;;;;4915125;29;20241;-71
2023/01/29 07:22:53;;;;;;;6.03;4.65;;;6.40;54.20;;;;;;4917465;29;20702;-71
2023/01/29 07:25:20;;;;;;;7.50;5.25;;;6.40;54.40;;;;;;4926484;29;20399;-71
2023/01/29 07:27:48;;;;;;;5.68;4.25;;;6.40;54.30;;;;;;4930249;29;20245;-69
2023/01/29 07:30:16;;;;;;;5.70;4.43;;;6.40;54.40;;;;;;4934118;29;20206;-70
2023/01/29 07:32:42;;;;;;;4.93;4.43;;;6.40;54.00;;;;;;4921899;29;20210;-69
2023/01/29 07:35:10;;;;;;;4.88;4.43;;;6.40;54.10;;;;;;4932334;29;20226;-70
2023/01/29 07:37:38;;;;;;;6.45;4.88;;;6.40;54.00;;;;;;4927809;29;20199;-71
2023/01/29 07:40:10;;;;;;;5.30;4.60;;;6.40;54.20;;;;;;4915070;29;20207;-70
2023/01/29 07:42:38;;;;;;;5.45;4.57;;;6.50;54.30;;;;;;4922741;29;20244;-70
2023/01/29 07:45:06;;;;;;;6.05;4.55;;;6.50;54.20;;;;;;4930040;29;20257;-71
2023/01/29 07:47:33;;;;;;;5.45;4.95;;;6.50;54.40;;;;;;4927344;29;20222;-70
2023/01/29 07:49:59;;;;;;;5.75;4.90;;;6.50;54.40;;;;;;4914884;29;20380;-70
2023/01/29 07:52:26;;;;;;;5.00;4.60;;;6.50;54.30;;;;;;4924062;29;20681;-71
2023/01/29 07:54:54;;;;;;;6.25;5.50;;;6.50;54.30;;;;;;4932911;29;20210;-71
2023/01/29 07:57:21;;;;;;;6.13;4.70;;;6.50;54.40;;;;;;4914245;29;20236;-70
2023/01/29 07:59:48;;;;;;;6.13;4.70;;;6.50;54.30;;;;;;4919820;29;20675;-70
2023/01/29 08:02:15;;;;;;;5.90;5.03;;;6.50;54.20;;;;;;4920309;29;20206;-71
2023/01/29 08:04:42;;;;;;;6.28;4.90;;;6.50;54.10;;;;;;4925137;29;20236;-70
2023/01/29 08:07:09;;;;;;;5.75;5.00;;;6.50;54.20;;;;;;4920373;29;20222;-71
2023/01/29 08:09:36;;;;;;;5.43;4.63;;;6.60;54.40;;;;;;4930024;29;20237;-70
2023/01/29 08:12:04;;;;;;;4.85;4.40;;;6.60;54.10;;;;;;4932423;29;20654;-71
2023/01/29 08:14:31;;;;;;;5.90;5.28;;;6.60;54.10;;;;;;4922291;29;20619;-70
2023/01/29 08:16:58;;;;;;;7.53;5.60;;;6.60;54.00;;;;;;4935444;29;20198;-71
2023/01/29 08:19:25;;;;;;;6.38;5.13;;;6.60;53.90;;;;;;4937256;29;20201;-70
2023/01/29 08:21:52;;;;;;;7.45;5.97;;;6.60;53.60;;;;;;4924237;29;20226;-71
2023/01/29 08:24:18;;;;;;;6.55;4.90;;;6.70;53.60;;;;;;4918392;29;20594;-71
2023/01/29 08:26:45;;;;;;;5.90;5.20;;;6.60;53.60;;;;;;4917131;29;20226;-70
2023/01/29 08:29:14;;;;;;;6.82;5.72;;;6.70;53.50;;;;;;4924218;29;20661;-71
2023/01/29 08:31:41;;;;;;;5.50;4.82;;;6.70;53.30;;;;;;4930328;29;20800;-71
2023/01/29 08:34:08;;;;;;;5.80;5.20;;;6.70;53.10;;;;;;4916779;29;20217;-70
2023/01/29 08:36:35;;;;;;;6.05;5.20;;;6.70;52.80;;;;;;4931981;29;20206;-71
2023/01/29 08:39:01;;;;;;;5.55;5.05;;;6.80;52.50;;;;;;4931976;29;20234;-71
2023/01/29 08:41:28;;;;;;;5.88;4.80;;;6.80;52.50;;;;;;4933844;29;20212;-70
2023/01/29 08:43:56;;;;;;;5.70;4.80;;;6.80;52.50;;;;;;4932653;29;20234;-70
2023/01/29 08:46:24;;;;;;;5.97;5.10;;;6.80;52.40;;;;;;4925030;29;20238;-72
2023/01/29 08:48:51;;;;;;;6.20;5.30;;;6.90;52.60;;;;;;4915416;29;20664;-70
2023/01/29 08:51:17;;;;;;;6.32;5.40;;;6.90;52.20;;;;;;4914478;29;20241;-70
2023/01/29 08:53:44;;;;;;;6.15;4.82;;;6.90;52.00;;;;;;4929581;29;20210;-70
2023/01/29 08:56:11;;;;;;;6.70;5.15;;;6.90;52.00;;;;;;4926862;29;20641;-69
2023/01/29 08:58:38;;;;;;;6.82;5.10;;;7.00;51.80;;;;;;4915675;29;20237;-70
2023/01/29 09:01:09;;;;;;;5.88;5.28;;;7.00;51.90;;;;;;4929310;29;20206;-70
2023/01/29 09:03:39;;;;;;;6.22;4.75;;;7.00;51.80;;;;;;4920749;29;20404;-71
2023/01/29 09:06:08;;;;;;;5.55;4.85;;;7.10;51.70;;;;;;4930124;29;20282;-80
2023/01/29 09:08:36;;;;;;;5.97;5.25;;;7.10;51.30;;;;;;4922400;29;20206;-81
2023/01/29 09:11:03;;;;;;;6.18;5.03;;;7.10;51.10;;;;;;4914964;29;20238;-80
2023/01/29 09:13:30;;;;;;;6.90;5.57;;;7.10;51.10;;;;;;4924275;29;20206;-77
2023/01/29 09:16:00;;;;;;;5.93;5.32;;;7.20;51.20;;;;;;4929281;29;20207;-72
2023/01/29 09:18:27;;;;;;;5.13;4.63;;;7.30;51.80;;;;;;4930703;29;20508;-77
2023/01/29 09:20:55;;;;;;;5.53;5.03;;;7.30;51.10;;;;;;4913646;29;20297;-73
2023/01/29 09:23:22;;;;;;;5.65;5.05;;;7.40;51.00;;;;;;4920144;29;20631;-78
2023/01/29 09:25:49;;;;;;;5.85;4.90;;;7.40;51.10;;;;;;4932077;29;20206;-73
2023/01/29 09:28:17;;;;;;;6.22;5.63;;;7.50;51.20;;;;;;4920680;29;20221;-74
2023/01/29 09:30:44;;;;;;;6.47;4.80;;;7.70;51.20;;;;;;4932941;29;20210;-73
2023/01/29 09:33:11;;;;;;;5.70;4.73;;;7.60;51.00;;;;;;4930716;29;20687;-76
2023/01/29 09:35:40;;;;;;;5.15;4.53;;;7.70;50.70;;;;;;4932573;29;20481;-74
2023/01/29 09:38:08;;;;;;;4.97;4.57;;;7.70;50.20;;;;;;4916242;29;20679;-77
2023/01/29 09:40:43;;;;;;;4.85;4.18;;;7.80;49.90;;;;;;4926965;29;20235;-75
2023/01/29 09:43:16;;;;;;;5.07;4.35;;;7.80;49.70;;;;;;4932991;29;20670;-75
2023/01/29 09:45:52;;;;;;;4.40;4.00;;;7.90;49.40;;;;;;4933991;29;20711;-78
2023/01/29 09:48:22;;;;;;;4.45;4.05;;;7.90;49.10;;;;;;4919370;29;20492;-75
2023/01/29 09:50:53;;;;;;;5.00;4.50;;;8.00;49.20;;;;;;4917891;29;20300;-76
2023/01/29 09:53:28;;;;;;;5.03;4.47;;;8.00;48.80;;;;;;4929630;29;20654;-74
2023/01/29 09:56:01;;;;;;;8.90;5.38;;;8.10;48.80;;;;;;4931394;29;20548;-75
2023/01/29 09:58:32;;;;;;;5.93;5.00;;;8.10;49.20;;;;;;4936319;29;20234;-75
2023/01/29 10:01:11;;;;;;;5.18;4.68;;;8.20;49.50;;;;;;4928685;29;20454;-73
2023/01/29 10:04:05;;;;;;;6.35;5.10;;;8.40;49.00;;;;;;4935646;29;20230;-73
2023/01/29 10:06:53;;;;;;;6.17;5.00;;;8.40;48.20;;;;;;4915999;29;20297;-73
2023/01/29 10:09:55;;;;;;;5.33;4.83;;;8.30;48.40;;;;;;4944865;29;20571;-72
2023/01/29 10:12:38;;;;;;;4.40;4.00;;;8.40;48.50;;;;;;4912826;29;20540;-73
2023/01/29 10:15:20;;;;;;;5.27;4.77;;;8.50;48.20;;;;;;4931950;29;20476;-73
2023/01/29 10:18:03;;;;;;;4.97;4.57;;;8.50;47.90;;;;;;4935047;29;20445;-73
2023/01/29 10:20:47;;;;;;;5.10;4.60;;;8.50;48.20;;;;;;4934038;29;20489;-73
2023/01/29 10:23:23;;;;;;;5.18;4.22;;;8.50;48.40;;;;;;4926346;29;20450;-73
2023/01/29 10:25:53;;;;;;;4.43;4.00;;;8.60;48.40;;;;;;4920506;29;20210;-72
2023/01/29 10:28:25;;;;;;;4.77;4.37;;;8.60;48.40;;;;;;4909494;29;20497;-74
2023/01/29 10:30:58;;;;;;;4.77;4.27;;;8.60;47.80;;;;;;4926739;29;20551;-72
2023/01/29 10:33:31;;;;;;;4.70;4.30;;;8.50;47.80;;;;;;4933476;29;20569;-72
2023/01/29 10:36:03;;;;;;;5.43;4.30;;;8.50;47.90;;;;;;4933968;29;20464;-72
2023/01/29 10:38:42;;;;;;;4.70;4.13;;;8.50;47.80;;;;;;4935080;29;20461;-74
2023/01/29 10:41:42;;;;;;;4.13;3.53;;;8.50;47.80;;;;;;4928202;29;20827;-73
2023/01/29 10:44:23;;;;;;;4.20;3.77;;;8.50;47.70;;;;;;4938775;29;20308;-72
2023/01/29 10:47:07;;;;;;;3.83;3.53;;;8.60;48.10;;;;;;4943841;29;20458;-73
2023/01/29 10:50:13;;;;;;;4.63;4.20;;;8.60;48.90;;;;;;4918118;29;20490;-74
2023/01/29 10:52:54;;;;;;;4.47;4.07;;;8.80;48.80;;;;;;4932349;29;20481;-73
2023/01/29 10:55:34;;;;;;;4.70;4.22;;;8.80;48.40;;;;;;4934275;29;20462;-73
2023/01/29 10:58:11;;;;;;;5.50;4.57;;;8.90;48.10;;;;;;4934054;29;20470;-73
2023/01/29 11:00:40;;;;;;;4.93;4.43;;;8.90;47.90;;;;;;4933726;29;20463;-73
2023/01/29 11:03:15;;;;;;;4.83;4.43;;;9.00;48.30;;;;;;4920290;29;21073;-73
2023/01/29 11:05:50;;;;;;;5.97;4.60;;;9.00;48.10;;;;;;4927827;29;20469;-73
2023/01/29 11:08:23;;;;;;;4.60;4.10;;;9.10;47.90;;;;;;4934808;29;20603;-73
2023/01/29 11:11:01;;;;;;;4.73;4.30;;;9.10;48.80;;;;;;4930360;29;20490;-73
2023/01/29 11:13:34;;;;;;;4.53;4.13;;;9.20;47.90;;;;;;4931358;29;20472;-73
2023/01/29 11:16:01;;;;;;;5.30;4.57;;;9.20;47.70;;;;;;4928183;29;20538;-72
2023/01/29 11:18:50;;;;;;;5.43;4.93;;;9.30;47.50;;;;;;4921223;29;20451;-74
2023/01/29 11:21:17;;;;;;;5.17;4.63;;;9.40;47.30;;;;;;4915476;29;20845;-73
2023/01/29 11:23:45;;;;;;;4.80;4.40;;;9.40;47.20;;;;;;4918904;29;20936;-73
2023/01/29 11:26:14;;;;;;;5.27;4.53;;;9.50;47.20;;;;;;4928507;29;20465;-73
2023/01/29 11:28:44;;;;;;;4.47;4.03;;;9.60;46.80;;;;;;4932958;29;20584;-73
2023/01/29 11:31:23;;;;;;;4.70;4.10;;;9.70;46.50;;;;;;4934062;29;20459;-73
2023/01/29 11:33:53;;;;;;;5.13;4.70;;;9.90;46.00;;;;;;4933703;29;20504;-73
2023/01/29 11:36:26;;;;;;;5.47;4.37;;;9.90;46.00;;;;;;4934185;29;20478;-73
2023/01/29 11:39:21;;;;;;;4.93;4.43;;;10.00;45.30;;;;;;4934107;29;20766;-74
2023/01/29 11:41:52;;;;;;;5.97;4.80;;;10.20;44.50;;;;;;4905227;29;20457;-73
2023/01/29 11:44:28;;;;;;;4.80;4.30;;;10.10;44.60;;;;;;4952552;29;20968;-73
2023/01/29 11:46:57;;;;;;;4.70;4.20;;;10.20;44.80;;;;;;4953214;29;20856;-73
2023/01/29 11:49:32;;;;;;;5.33;4.77;;;10.40;44.40;;;;;;4953712;29;20845;-73
2023/01/29 11:52:01;;;;;;;4.37;3.97;;;10.70;44.20;;;;;;4953568;29;20539;-73
2023/01/29 11:54:33;;;;;;;4.60;4.20;;;10.50;44.40;;;;;;4944682;29;20449;-73
2023/01/29 11:57:00;;;;;;;4.67;4.00;;;10.70;44.70;;;;;;4938989;29;20973;-73
2023/01/29 11:59:38;;;;;;;5.00;4.60;;;10.90;44.30;;;;;;4951672;29;20567;-73
2023/01/29 12:02:26;;;;;;;4.27;3.87;;;11.10;43.80;;;;;;4917129;29;20460;-72
2023/01/29 12:04:55;;;;;;;4.67;4.23;;;11.20;43.40;;;;;;4933920;29;20512;-73
2023/01/29 12:07:22;;;;;;;4.27;3.87;;;11.30;43.00;;;;;;4941433;29;20540;-73
2023/01/29 12:09:52;;;;;;;5.10;4.60;;;11.50;43.00;;;;;;4953002;28;20465;-73
2023/01/29 12:12:30;;;;;;;4.80;4.40;;;11.60;42.50;;;;;;4953085;29;20491;-73
2023/01/29 12:15:19;;;;;;;4.70;4.30;;;11.60;42.60;;;;;;4965003;28;20474;-72
2023/01/29 12:17:58;;;;;;;5.47;4.97;;;11.80;42.50;;;;;;4956288;28;20458;-73
2023/01/29 12:20:33;;;;;;;4.30;3.90;;;12.00;42.50;;;;;;4957142;28;20453;-74
2023/01/29 12:23:04;;;;;;;5.20;4.70;;;12.30;42.60;;;;;;4935049;29;20547;-74
2023/01/29 12:25:44;;;;;;;5.00;4.50;;;12.40;41.50;;;;;;4933439;29;20489;-74
2023/01/29 12:28:23;;;;;;;5.00;4.50;;;12.50;41.20;;;;;;4932936;29;20521;-74
2023/01/29 12:31:02;;;;;;;5.30;4.80;;;12.60;40.80;;;;;;4933385;29;20576;-74
2023/01/29 12:33:41;;;;;;;6.07;5.40;;;12.80;40.80;;;;;;4914687;29;20462;-74
2023/01/29 12:36:14;;;;;;;4.40;4.10;;;12.80;40.20;;;;;;4914239;29;20464;-73
2023/01/29 12:38:43;;;;;;;5.40;4.90;;;12.80;40.40;;;;;;4914656;29;20483;-73
2023/01/29 12:41:26;;;;;;;4.27;3.87;;;13.00;40.40;;;;;;4914760;29;20465;-74
2023/01/29 12:43:56;;;;;;;4.67;4.27;;;13.10;39.50;;;;;;4933009;29;20499;-75
2023/01/29 12:46:27;;;;;;;4.87;4.47;;;13.20;39.50;;;;;;4951813;29;20547;-74
2023/01/29 12:48:57;;;;;;;5.30;4.80;;;13.40;39.50;;;;;;4951917;29;20495;-74
2023/01/29 12:51:29;;;;;;;7.73;5.70;;;13.70;39.80;;;;;;4952111;29;20524;-74
2023/01/29 12:54:00;;;;;;;7.10;5.40;;;13.30;38.40;;;;;;4952309;29;20938;-73
2023/01/29 12:56:31;;;;;;;9.47;6.27;;;13.20;39.10;;;;;;4940212;29;20492;-74
2023/01/29 12:59:02;;;;;;;4.60;4.20;;;13.60;39.20;;;;;;4933327;29;20450;-74
2023/01/29 13:01:37;;;;;;;4.93;4.50;;;14.00;38.90;;;;;;4933067;29;20468;-74
2023/01/29 13:04:11;;;;;;;4.27;3.70;;;14.70;38.30;;;;;;4932792;29;20979;-74
2023/01/29 13:06:43;;;;;;;11.83;6.67;;;15.30;37.30;;;;;;4932957;29;20548;-74
2023/01/29 13:09:16;;;;;;;4.40;4.00;;;15.90;36.80;;;;;;4947271;29;20532;-74
2023/01/29 13:11:50;;;;;;;8.60;6.07;;;16.70;35.90;;;;;;4951548;29;20547;-73
2023/01/29 13:14:21;;;;;;;5.50;4.23;;;17.10;34.70;;;;;;4948958;29;20485;-74
2023/01/29 13:16:52;;;;;;;4.00;3.70;;;17.70;35.10;;;;;;4932796;29;20490;-73
2023/01/29 13:19:26;;;;;;;4.17;3.77;;;18.40;34.10;;;;;;4932774;29;20822;-73
2023/01/29 13:21:54;;;;;;;4.40;4.00;;;19.40;33.00;;;;;;4950317;29;20319;-73
2023/01/29 13:24:24;;;;;;;4.63;4.20;;;19.80;32.30;;;;;;4951708;29;20209;-73
2023/01/29 13:26:51;;;;;;;3.90;3.60;;;20.10;32.90;;;;;;4951539;29;20466;-74
2023/01/29 13:29:24;;;;;;;4.53;4.13;;;20.50;32.10;;;;;;4951264;29;20233;-73
2023/01/29 13:31:53;;;;;;;3.90;3.60;;;20.70;30.60;;;;;;4951432;29;20576;-74
2023/01/29 13:34:24;;;;;;;3.63;3.33;;;20.60;30.90;;;;;;4932724;29;20595;-73
2023/01/29 13:36:54;;;;;;;4.47;4.10;;;20.40;30.80;;;;;;4933162;29;20640;-73
2023/01/29 13:39:26;;;;;;;4.50;4.00;;;20.10;30.60;;;;;;4931965;29;20241;-73
2023/01/29 13:41:55;;;;;;;4.37;3.90;;;19.50;30.60;;;;;;4932355;29;20245;-74
2023/01/29 13:44:25;;;;;;;3.93;3.63;;;19.00;31.00;;;;;;4937951;29;20215;-74
2023/01/29 13:46:57;;;;;;;4.40;4.07;;;18.20;31.00;;;;;;4952098;29;20840;-73
2023/01/29 13:49:29;;;;;;;3.80;3.50;;;17.10;31.80;;;;;;4951926;29;20619;-74